Bookmark and Share
Track history (hours):
 

Global Enterprise

Last reported at 2014-Apr-01 03:33 UTC. Time now 2014-Apr-18 00:28 UTC.
Position N 36°47' W 075°33'.
Warning: this ship's position is 16 days out of date.

Length 290 m; draft 14.7 m.

Type: Cargo ship. MMSI: 356308000.

NotesDate/timePositionNaut miles runAvg speedWind from/ knotsBaromVisibWave heightAir tempDewpointWater temp
2014-Apr-01 03:33N 36°47' W 075°33'1010.0
2014-Apr-01 02:33N 36°49' W 075°46'9 9.5
2014-Apr-01 01:33N 36°55' W 075°55'8 8.1
2014-Apr-01 00:33N 36°58' W 076°04'9 9.2
2014-Mar-31 23:33N 37°00' W 076°16'8 8.4
2014-Mar-31 22:33N 36°57' W 076°25'1 0.6
2014-Mar-31 21:33N 36°58' W 076°26'0 0.0
2014-Mar-31 20:33N 36°58' W 076°26'0 0.0
2014-Mar-31 19:33N 36°58' W 076°26'0 0.0
2014-Mar-31 18:21N 36°58' W 076°26'0 0.0
2014-Mar-31 17:30N 36°58' W 076°26'0 0.0
2014-Mar-31 16:33N 36°58' W 076°26'0 0.0
2014-Mar-31 15:33N 36°58' W 076°26'0 0.0
2014-Mar-31 14:33N 36°58' W 076°26'0 0.0
2014-Mar-31 13:30N 36°58' W 076°26'0 0.0
2014-Mar-31 12:33N 36°58' W 076°26'0 0.0
2014-Mar-31 11:33N 36°58' W 076°26'0 0.0
2014-Mar-31 10:33N 36°58' W 076°26'0 0.0
2014-Mar-31 09:33N 36°58' W 076°26'0 0.0
2014-Mar-31 08:27N 36°58' W 076°26'0 0.0
2014-Mar-31 07:30N 36°58' W 076°26'0 0.0
2014-Mar-31 06:27N 36°58' W 076°26'0 0.0
2014-Mar-31 05:33N 36°58' W 076°26'0 0.0
2014-Mar-31 04:33N 36°58' W 076°26'0 0.0
2014-Mar-31 03:33N 36°58' W 076°26'0 0.0
2014-Mar-31 02:33N 36°58' W 076°26'0 0.0
2014-Mar-31 01:33N 36°58' W 076°26'0 0.0
2014-Mar-31 00:33N 36°58' W 076°26'0 0.0
2014-Mar-30 23:27N 36°58' W 076°26'0 0.0
2014-Mar-30 22:30N 36°58' W 076°26'0 0.0
2014-Mar-30 21:33N 36°58' W 076°26'0 0.0
2014-Mar-30 20:33N 36°58' W 076°26'0 0.0
2014-Mar-30 19:33N 36°58' W 076°26'0 0.0
2014-Mar-30 18:33N 36°58' W 076°26'0 0.0
2014-Mar-30 17:33N 36°58' W 076°26'0 0.0
2014-Mar-30 16:33N 36°58' W 076°26'0 0.0
2014-Mar-30 15:33N 36°58' W 076°26'0 0.0
2014-Mar-30 14:33N 36°58' W 076°26'0 0.0
2014-Mar-30 13:33N 36°58' W 076°26'0 0.1
2014-Mar-30 12:33N 36°58' W 076°26'24 2.7
2014-Mar-30 03:31N 37°16' W 076°06'0 0.0
2014-Mar-30 02:31N 37°16' W 076°06'0 0.0
2014-Mar-30 01:31N 37°16' W 076°06'0 0.1
2014-Mar-30 00:31N 37°16' W 076°06'0 0.0
2014-Mar-29 23:31N 37°16' W 076°06'0 0.2
2014-Mar-29 22:31N 37°16' W 076°06'0 0.2
2014-Mar-29 21:25N 37°16' W 076°06'0 0.0
2014-Mar-29 20:25N 37°16' W 076°06'0 0.0
2014-Mar-29 19:07N 37°16' W 076°06'0 0.0
2014-Mar-29 18:07N 37°16' W 076°06'0 0.4
2014-Mar-29 17:31N 37°16' W 076°06'0 0.1
2014-Mar-29 16:22N 37°16' W 076°06'0 0.0
2014-Mar-29 15:31N 37°16' W 076°06'0 0.0
2014-Mar-29 14:31N 37°16' W 076°06'0 0.0
2014-Mar-29 13:31N 37°16' W 076°06'0 0.1
2014-Mar-29 12:28N 37°16' W 076°06'0 0.2
2014-Mar-29 11:28N 37°16' W 076°06'0 0.2
2014-Mar-29 10:28N 37°16' W 076°06'0 0.0
2014-Mar-29 09:13N 37°16' W 076°06'0 0.0
2014-Mar-29 08:31N 37°16' W 076°06'0 0.0
2014-Mar-29 07:31N 37°16' W 076°06'0 0.0
2014-Mar-29 06:31N 37°16' W 076°06'0 0.0
2014-Mar-29 05:28N 37°16' W 076°06'0 0.0
2014-Mar-29 04:31N 37°16' W 076°06'0 0.3
2014-Mar-29 03:31N 37°16' W 076°06'0 0.1
2014-Mar-29 02:31N 37°16' W 076°06'0 0.0
2014-Mar-29 01:31N 37°16' W 076°06'0 0.0
2014-Mar-29 00:31N 37°16' W 076°06'0 0.3
2014-Mar-28 23:31N 37°16' W 076°06'0 0.1
2014-Mar-28 22:19N 37°16' W 076°06'0 0.1
2014-Mar-28 21:31N 37°16' W 076°06'0 0.0
2014-Mar-28 20:31N 37°16' W 076°06'0 0.0
2014-Mar-28 19:22N 37°16' W 076°06'83 1.9
2014-Mar-26 23:33N 38°37' W 076°26'3511.6
2014-Mar-26 20:33N 39°11' W 076°28'5 5.2
2014-Mar-26 19:32N 39°13' W 076°35'0 0.0
2014-Mar-26 17:32N 39°13' W 076°35'0 0.0
2014-Mar-26 16:30N 39°13' W 076°35'0 0.0
2014-Mar-26 15:32N 39°13' W 076°35'0 0.0
2014-Mar-26 14:32N 39°13' W 076°35'0 0.0
2014-Mar-26 13:32N 39°13' W 076°35'0 0.0
2014-Mar-26 12:32N 39°13' W 076°35'0 0.0
2014-Mar-26 11:32N 39°13' W 076°35'0 0.0
2014-Mar-26 10:32N 39°13' W 076°35'0 0.0
2014-Mar-26 09:32N 39°13' W 076°35'0 0.0
2014-Mar-26 08:32N 39°13' W 076°35'0 0.0
2014-Mar-26 07:32N 39°13' W 076°35'0 0.0
2014-Mar-26 00:29N 39°13' W 076°35'0 0.0
2014-Mar-25 23:32N 39°13' W 076°35'0 0.0
2014-Mar-25 22:32N 39°13' W 076°35'0 0.0
2014-Mar-25 21:32N 39°13' W 076°35'0 0.0
2014-Mar-25 20:23N 39°13' W 076°35'0 0.0
2014-Mar-25 19:32N 39°13' W 076°35'0 0.0
2014-Mar-25 17:29N 39°13' W 076°35'0 0.0
2014-Mar-25 16:32N 39°13' W 076°35'0 0.0
2014-Mar-25 15:32N 39°13' W 076°35'0 0.0
2014-Mar-25 14:32N 39°13' W 076°35'0 0.0
2014-Mar-25 13:32N 39°13' W 076°35'0 0.0
2014-Mar-25 12:32N 39°13' W 076°35'0 0.0
2014-Mar-25 11:32N 39°13' W 076°35'0 0.0
2014-Mar-25 10:32N 39°13' W 076°35'0 0.0
2014-Mar-25 09:32N 39°13' W 076°35'0 0.0
2014-Mar-25 08:32N 39°13' W 076°35'0 0.0
2014-Mar-25 07:29N 39°13' W 076°35'0 0.0
2014-Mar-25 06:32N 39°13' W 076°35'0 0.0
2014-Mar-25 05:32N 39°13' W 076°35'0 0.0
2014-Mar-25 04:32N 39°13' W 076°35'0 0.0
2014-Mar-25 03:32N 39°13' W 076°35'0 0.0
2014-Mar-25 02:32N 39°13' W 076°35'0 0.0
2014-Mar-25 01:32N 39°13' W 076°35'0 0.0
2014-Mar-24 16:59N 39°13' W 076°35'0 0.0
2014-Mar-22 20:32N 39°13' W 076°35'0 0.0
2014-Mar-22 20:24N 39°13' W 076°35'0 0.0
2014-Mar-22 17:32N 39°13' W 076°35'0 0.0
2014-Mar-22 14:32N 39°13' W 076°35'0 0.0
2014-Mar-22 13:32N 39°13' W 076°35'0 0.0
2014-Mar-22 12:32N 39°13' W 076°35'0 0.0
2014-Mar-22 11:33N 39°13' W 076°35'0 0.0
2014-Mar-22 10:32N 39°13' W 076°35'0 0.0
2014-Mar-22 09:32N 39°13' W 076°35'0 0.0
2014-Mar-22 08:32N 39°13' W 076°35'0 0.0
2014-Mar-22 07:29N 39°13' W 076°35'0 0.0
2014-Mar-22 06:32N 39°13' W 076°35'0 0.0
2014-Mar-22 05:32N 39°13' W 076°35'0 0.0
2014-Mar-22 04:32N 39°13' W 076°35'  

Dump ship's entire track history

sailing weather and tide predictions

Global Enterprise — 3FCJ6 — position and weather